Columbia Gorge Regional the Dalles Municipal Airport
KDLS : now visible

Airfield :











YOU CAN JOIN US ON...

 
LOGIN :

Register | Disclaimer

   EN    FR    IT 

 









Legend :    VFR   Marginal VFR   IFR   Intensive IFR   Very Intensive IFR
Visi :
Ceiling :
>= 8 km
>= 3000ft
5 to 8 km
1000 to 3000 ft
1500m to 5 km
500 to 1000 ft
800 to 1500m
200 to 500 ft
< 800m
< 200 ft
Symbols :   Thunderstorms  Fog  Heavy snow  Heavy precipitations  Wind > 20 kt






- Airport Elevation : 247 ft


KDLS - Columbia Gorge Regional the Dalles Municipal

CURRENT METAR :
  • 151653Z AUTO 00000KT 8SM OVC100 07/04 A3014 RMK AO2 SLP207 T00720044

EXPIRED METARs :
  • 151625Z AUTO 00000KT 7SM SCT023 BKN095 OVC110 07/04 A3014 RMK AO2 T00720044
  • 151553Z AUTO 00000KT 8SM OVC023 07/04 A3013 RMK AO2 SLP204 T00670044
  • 151453Z AUTO 00000KT 10SM OVC023 07/04 A3011 RMK AO2 SLP199 T00670039 55000

TAF KDLS
Valid from the 15 at 18:00 until the 16 at 18:00 UTC


151732Z 1518/1618 30008KT P6SM VCSH SCT023 BKN090
FM160100 30007KT P6SM SCT060 BKN150
FM160900 29006KT P6SM SCT250
FM161500 32004KT P6SM BKN100



MET'MAP, your aeronautical weather chart ! - Copyright ORBIFLY December 2007 - Disclaimer

ORBIFLY MET'MAP TEAM :

Programming & Development : Alexandra Zaïnal
Concept & Development : Baudouin d'Aumeries
Co-Development & Prog : Marc-Olivier Méhu
Technical & hardware support : Manuel Goepfert

Contact : metmap@orbifly.com




SOURCES & CREDITS :

   NOAA       Earth
Advisory